sensor_id;sensor_type;location;lat;lon;timestamp;P1;durP1;ratioP1;P2;durP2;ratioP2
71104;SDS011;58760;48.716;8.962;2022-09-09T00:00:54;4.50;;;1.08;;
71104;SDS011;58760;48.716;8.962;2022-09-09T00:03:30;6.95;;;1.10;;
71104;SDS011;58760;48.716;8.962;2022-09-09T00:11:26;5.47;;;1.00;;
71104;SDS011;58760;48.716;8.962;2022-09-09T00:17:35;3.00;;;0.82;;
71104;SDS011;58760;48.716;8.962;2022-09-09T00:20:12;3.22;;;1.10;;
71104;SDS011;58760;48.716;8.962;2022-09-09T00:22:59;3.30;;;1.17;;
71104;SDS011;58760;48.716;8.962;2022-09-09T00:25:37;4.18;;;1.00;;
71104;SDS011;58760;48.716;8.962;2022-09-09T00:28:19;4.72;;;0.90;;
71104;SDS011;58760;48.716;8.962;2022-09-09T00:30:47;5.57;;;1.20;;
71104;SDS011;58760;48.716;8.962;2022-09-09T00:33:13;3.95;;;1.08;;
71104;SDS011;58760;48.716;8.962;2022-09-09T00:35:43;6.18;;;1.20;;
71104;SDS011;58760;48.716;8.962;2022-09-09T00:38:16;4.13;;;0.95;;
71104;SDS011;58760;48.716;8.962;2022-09-09T00:43:58;3.83;;;0.93;;
71104;SDS011;58760;48.716;8.962;2022-09-09T00:52:26;6.63;;;1.15;;
71104;SDS011;58760;48.716;8.962;2022-09-09T00:55:21;4.72;;;0.93;;
71104;SDS011;58760;48.716;8.962;2022-09-09T00:57:51;4.65;;;1.20;;
71104;SDS011;58760;48.716;8.962;2022-09-09T01:11:26;5.30;;;1.10;;
71104;SDS011;58760;48.716;8.962;2022-09-09T01:25:29;1.63;;;0.77;;
71104;SDS011;58760;48.716;8.962;2022-09-09T01:28:19;3.00;;;0.93;;
71104;SDS011;58760;48.716;8.962;2022-09-09T01:30:47;4.25;;;1.02;;
71104;SDS011;58760;48.716;8.962;2022-09-09T01:33:14;7.00;;;1.10;;
71104;SDS011;58760;48.716;8.962;2022-09-09T01:38:19;3.47;;;1.10;;
71104;SDS011;58760;48.716;8.962;2022-09-09T01:40:46;4.90;;;0.90;;
71104;SDS011;58760;48.716;8.962;2022-09-09T01:43:11;3.30;;;1.00;;
71104;SDS011;58760;48.716;8.962;2022-09-09T01:45:38;6.80;;;1.10;;
71104;SDS011;58760;48.716;8.962;2022-09-09T01:48:05;4.75;;;0.93;;
71104;SDS011;58760;48.716;8.962;2022-09-09T01:50:31;4.43;;;0.82;;
71104;SDS011;58760;48.716;8.962;2022-09-09T01:52:57;4.82;;;0.93;;
71104;SDS011;58760;48.716;8.962;2022-09-09T01:55:30;5.18;;;0.88;;
71104;SDS011;58760;48.716;8.962;2022-09-09T01:58:05;5.43;;;0.85;;
71104;SDS011;58760;48.716;8.962;2022-09-09T02:00:44;3.38;;;0.60;;
71104;SDS011;58760;48.716;8.962;2022-09-09T02:03:28;4.30;;;0.90;;
71104;SDS011;58760;48.716;8.962;2022-09-09T02:06:14;3.90;;;0.68;;
71104;SDS011;58760;48.716;8.962;2022-09-09T02:09:04;1.55;;;0.50;;
71104;SDS011;58760;48.716;8.962;2022-09-09T02:11:30;2.55;;;0.50;;
71104;SDS011;58760;48.716;8.962;2022-09-09T02:14:08;1.90;;;0.50;;
71104;SDS011;58760;48.716;8.962;2022-09-09T02:16:42;2.83;;;0.50;;
71104;SDS011;58760;48.716;8.962;2022-09-09T02:19:21;2.50;;;0.70;;
71104;SDS011;58760;48.716;8.962;2022-09-09T02:21:52;4.45;;;0.77;;
71104;SDS011;58760;48.716;8.962;2022-09-09T02:24:20;2.75;;;0.90;;
71104;SDS011;58760;48.716;8.962;2022-09-09T02:26:48;2.72;;;0.70;;
71104;SDS011;58760;48.716;8.962;2022-09-09T02:29:19;3.60;;;0.90;;
71104;SDS011;58760;48.716;8.962;2022-09-09T02:31:49;5.53;;;0.80;;
71104;SDS011;58760;48.716;8.962;2022-09-09T02:34:16;2.92;;;0.88;;
71104;SDS011;58760;48.716;8.962;2022-09-09T02:36:45;5.25;;;0.90;;
71104;SDS011;58760;48.716;8.962;2022-09-09T02:39:12;4.70;;;0.98;;
71104;SDS011;58760;48.716;8.962;2022-09-09T02:41:39;3.08;;;0.73;;
71104;SDS011;58760;48.716;8.962;2022-09-09T02:44:10;4.25;;;1.05;;
71104;SDS011;58760;48.716;8.962;2022-09-09T02:52:05;3.80;;;1.10;;
71104;SDS011;58760;48.716;8.962;2022-09-09T02:54:33;4.43;;;0.85;;
71104;SDS011;58760;48.716;8.962;2022-09-09T02:57:06;3.45;;;0.73;;
71104;SDS011;58760;48.716;8.962;2022-09-09T02:59:36;3.13;;;0.73;;
71104;SDS011;58760;48.716;8.962;2022-09-09T03:02:02;3.15;;;1.00;;
71104;SDS011;58760;48.716;8.962;2022-09-09T03:04:27;5.70;;;1.13;;
71104;SDS011;58760;48.716;8.962;2022-09-09T03:06:53;6.32;;;1.05;;
71104;SDS011;58760;48.716;8.962;2022-09-09T03:09:19;1.98;;;0.60;;
71104;SDS011;58760;48.716;8.962;2022-09-09T03:11:44;5.60;;;1.20;;
71104;SDS011;58760;48.716;8.962;2022-09-09T03:14:10;1.95;;;0.70;;
71104;SDS011;58760;48.716;8.962;2022-09-09T03:16:36;3.65;;;0.70;;
71104;SDS011;58760;48.716;8.962;2022-09-09T03:19:01;2.92;;;0.80;;
71104;SDS011;58760;48.716;8.962;2022-09-09T03:21:27;2.05;;;0.60;;
71104;SDS011;58760;48.716;8.962;2022-09-09T03:23:52;2.30;;;0.90;;
71104;SDS011;58760;48.716;8.962;2022-09-09T03:26:18;3.33;;;0.95;;
71104;SDS011;58760;48.716;8.962;2022-09-09T03:28:43;3.28;;;0.70;;
71104;SDS011;58760;48.716;8.962;2022-09-09T03:31:10;3.25;;;0.90;;
71104;SDS011;58760;48.716;8.962;2022-09-09T03:33:36;3.17;;;0.90;;
71104;SDS011;58760;48.716;8.962;2022-09-09T03:36:02;5.63;;;0.75;;
71104;SDS011;58760;48.716;8.962;2022-09-09T03:38:28;3.20;;;0.60;;
71104;SDS011;58760;48.716;8.962;2022-09-09T03:40:55;3.15;;;0.80;;
71104;SDS011;58760;48.716;8.962;2022-09-09T03:43:22;3.30;;;0.70;;
71104;SDS011;58760;48.716;8.962;2022-09-09T03:45:49;3.03;;;0.90;;
71104;SDS011;58760;48.716;8.962;2022-09-09T03:48:15;2.20;;;0.70;;
71104;SDS011;58760;48.716;8.962;2022-09-09T03:50:59;2.63;;;0.80;;
71104;SDS011;58760;48.716;8.962;2022-09-09T03:53:26;3.45;;;0.82;;
71104;SDS011;58760;48.716;8.962;2022-09-09T03:55:52;2.95;;;0.70;;
71104;SDS011;58760;48.716;8.962;2022-09-09T03:58:19;3.92;;;1.23;;
71104;SDS011;58760;48.716;8.962;2022-09-09T04:00:59;3.00;;;0.80;;
71104;SDS011;58760;48.716;8.962;2022-09-09T04:03:24;3.55;;;0.73;;
71104;SDS011;58760;48.716;8.962;2022-09-09T04:05:51;4.43;;;0.98;;
71104;SDS011;58760;48.716;8.962;2022-09-09T04:08:17;3.50;;;0.88;;
71104;SDS011;58760;48.716;8.962;2022-09-09T04:10:47;3.42;;;0.70;;
71104;SDS011;58760;48.716;8.962;2022-09-09T04:13:14;3.33;;;0.93;;
71104;SDS011;58760;48.716;8.962;2022-09-09T04:15:41;3.80;;;0.80;;
71104;SDS011;58760;48.716;8.962;2022-09-09T04:18:08;4.05;;;1.00;;
71104;SDS011;58760;48.716;8.962;2022-09-09T04:20:33;3.30;;;0.90;;
71104;SDS011;58760;48.716;8.962;2022-09-09T04:22:59;5.13;;;1.05;;
71104;SDS011;58760;48.716;8.962;2022-09-09T04:25:24;5.22;;;1.10;;
71104;SDS011;58760;48.716;8.962;2022-09-09T04:27:56;3.58;;;0.80;;
71104;SDS011;58760;48.716;8.962;2022-09-09T04:30:23;6.50;;;1.20;;
71104;SDS011;58760;48.716;8.962;2022-09-09T04:32:49;3.55;;;0.73;;
71104;SDS011;58760;48.716;8.962;2022-09-09T04:35:15;2.03;;;0.73;;
71104;SDS011;58760;48.716;8.962;2022-09-09T04:37:40;2.63;;;0.85;;
71104;SDS011;58760;48.716;8.962;2022-09-09T04:40:06;4.78;;;0.90;;
71104;SDS011;58760;48.716;8.962;2022-09-09T04:42:36;2.50;;;0.95;;
71104;SDS011;58760;48.716;8.962;2022-09-09T04:45:02;2.92;;;0.95;;
71104;SDS011;58760;48.716;8.962;2022-09-09T04:47:28;3.63;;;0.93;;
71104;SDS011;58760;48.716;8.962;2022-09-09T04:49:53;3.50;;;1.00;;
71104;SDS011;58760;48.716;8.962;2022-09-09T04:52:19;4.35;;;0.75;;
71104;SDS011;58760;48.716;8.962;2022-09-09T04:54:45;3.63;;;0.90;;
71104;SDS011;58760;48.716;8.962;2022-09-09T04:57:11;3.38;;;1.00;;
71104;SDS011;58760;48.716;8.962;2022-09-09T04:59:36;6.80;;;1.05;;
71104;SDS011;58760;48.716;8.962;2022-09-09T05:02:02;6.22;;;1.33;;
71104;SDS011;58760;48.716;8.962;2022-09-09T05:04:28;3.65;;;1.02;;
71104;SDS011;58760;48.716;8.962;2022-09-09T05:06:53;6.07;;;1.00;;
71104;SDS011;58760;48.716;8.962;2022-09-09T05:09:19;2.22;;;0.98;;
71104;SDS011;58760;48.716;8.962;2022-09-09T05:11:44;5.32;;;1.10;;
71104;SDS011;58760;48.716;8.962;2022-09-09T05:14:09;2.47;;;0.82;;
71104;SDS011;58760;48.716;8.962;2022-09-09T05:16:37;4.20;;;1.02;;
71104;SDS011;58760;48.716;8.962;2022-09-09T05:19:02;3.08;;;1.13;;
71104;SDS011;58760;48.716;8.962;2022-09-09T05:21:28;2.25;;;0.82;;
71104;SDS011;58760;48.716;8.962;2022-09-09T05:23:55;3.55;;;1.20;;
71104;SDS011;58760;48.716;8.962;2022-09-09T05:26:21;5.05;;;1.15;;
71104;SDS011;58760;48.716;8.962;2022-09-09T05:28:48;4.63;;;1.13;;
71104;SDS011;58760;48.716;8.962;2022-09-09T05:31:14;4.78;;;1.08;;
71104;SDS011;58760;48.716;8.962;2022-09-09T05:33:41;2.92;;;1.38;;
71104;SDS011;58760;48.716;8.962;2022-09-09T05:36:12;4.13;;;1.15;;
71104;SDS011;58760;48.716;8.962;2022-09-09T05:41:07;6.72;;;1.17;;
71104;SDS011;58760;48.716;8.962;2022-09-09T05:43:34;4.80;;;1.20;;
71104;SDS011;58760;48.716;8.962;2022-09-09T05:48:29;6.25;;;1.30;;
71104;SDS011;58760;48.716;8.962;2022-09-09T05:50:57;6.25;;;1.38;;
71104;SDS011;58760;48.716;8.962;2022-09-09T05:53:23;3.78;;;0.82;;
71104;SDS011;58760;48.716;8.962;2022-09-09T05:55:48;4.65;;;1.40;;
71104;SDS011;58760;48.716;8.962;2022-09-09T05:58:14;3.28;;;1.20;;
71104;SDS011;58760;48.716;8.962;2022-09-09T06:00:42;3.13;;;0.85;;
71104;SDS011;58760;48.716;8.962;2022-09-09T06:03:10;4.68;;;0.90;;
71104;SDS011;58760;48.716;8.962;2022-09-09T06:05:36;4.72;;;0.98;;
71104;SDS011;58760;48.716;8.962;2022-09-09T06:08:02;4.85;;;1.00;;
71104;SDS011;58760;48.716;8.962;2022-09-09T06:10:28;3.72;;;1.10;;
71104;SDS011;58760;48.716;8.962;2022-09-09T06:12:53;5.43;;;1.00;;
71104;SDS011;58760;48.716;8.962;2022-09-09T06:15:19;5.55;;;1.08;;
71104;SDS011;58760;48.716;8.962;2022-09-09T06:17:44;5.90;;;1.00;;
71104;SDS011;58760;48.716;8.962;2022-09-09T06:20:10;2.30;;;0.90;;
71104;SDS011;58760;48.716;8.962;2022-09-09T06:22:36;4.68;;;0.95;;
71104;SDS011;58760;48.716;8.962;2022-09-09T06:25:01;2.17;;;0.80;;
71104;SDS011;58760;48.716;8.962;2022-09-09T06:27:27;2.72;;;0.93;;
71104;SDS011;58760;48.716;8.962;2022-09-09T06:29:53;4.82;;;1.05;;
71104;SDS011;58760;48.716;8.962;2022-09-09T06:32:19;4.10;;;1.35;;
71104;SDS011;58760;48.716;8.962;2022-09-09T06:34:44;5.18;;;1.00;;
71104;SDS011;58760;48.716;8.962;2022-09-09T06:37:10;5.75;;;2.00;;
71104;SDS011;58760;48.716;8.962;2022-09-09T06:39:35;5.68;;;1.20;;
71104;SDS011;58760;48.716;8.962;2022-09-09T06:42:01;6.10;;;1.45;;
71104;SDS011;58760;48.716;8.962;2022-09-09T06:44:27;6.47;;;1.10;;
71104;SDS011;58760;48.716;8.962;2022-09-09T06:46:52;9.88;;;1.08;;
71104;SDS011;58760;48.716;8.962;2022-09-09T06:49:18;6.82;;;1.42;;
71104;SDS011;58760;48.716;8.962;2022-09-09T06:51:43;5.72;;;1.33;;
71104;SDS011;58760;48.716;8.962;2022-09-09T06:54:09;5.35;;;1.00;;
71104;SDS011;58760;48.716;8.962;2022-09-09T06:56:36;5.40;;;1.52;;
71104;SDS011;58760;48.716;8.962;2022-09-09T06:59:08;6.22;;;1.40;;
71104;SDS011;58760;48.716;8.962;2022-09-09T07:01:36;6.63;;;1.13;;
71104;SDS011;58760;48.716;8.962;2022-09-09T07:04:03;5.47;;;1.05;;
71104;SDS011;58760;48.716;8.962;2022-09-09T07:06:33;6.43;;;1.10;;
71104;SDS011;58760;48.716;8.962;2022-09-09T07:09:04;7.07;;;1.33;;
71104;SDS011;58760;48.716;8.962;2022-09-09T07:11:33;7.25;;;1.20;;
71104;SDS011;58760;48.716;8.962;2022-09-09T07:14:02;4.97;;;0.98;;
71104;SDS011;58760;48.716;8.962;2022-09-09T07:16:27;4.45;;;1.35;;
71104;SDS011;58760;48.716;8.962;2022-09-09T07:18:54;4.90;;;1.17;;
71104;SDS011;58760;48.716;8.962;2022-09-09T07:21:28;10.15;;;1.23;;
71104;SDS011;58760;48.716;8.962;2022-09-09T07:23:54;4.78;;;0.90;;
71104;SDS011;58760;48.716;8.962;2022-09-09T07:26:21;3.60;;;1.17;;
71104;SDS011;58760;48.716;8.962;2022-09-09T07:28:48;5.07;;;0.90;;
71104;SDS011;58760;48.716;8.962;2022-09-09T07:31:15;11.63;;;1.40;;
71104;SDS011;58760;48.716;8.962;2022-09-09T07:33:42;6.68;;;1.20;;
71104;SDS011;58760;48.716;8.962;2022-09-09T07:36:10;9.07;;;1.42;;
71104;SDS011;58760;48.716;8.962;2022-09-09T07:38:41;11.38;;;1.27;;
71104;SDS011;58760;48.716;8.962;2022-09-09T07:41:10;8.80;;;1.40;;
71104;SDS011;58760;48.716;8.962;2022-09-09T07:43:39;4.05;;;1.05;;
71104;SDS011;58760;48.716;8.962;2022-09-09T07:46:06;9.85;;;1.40;;
71104;SDS011;58760;48.716;8.962;2022-09-09T07:48:32;4.18;;;1.02;;
71104;SDS011;58760;48.716;8.962;2022-09-09T07:51:05;6.72;;;1.13;;
71104;SDS011;58760;48.716;8.962;2022-09-09T07:53:31;3.83;;;1.17;;
71104;SDS011;58760;48.716;8.962;2022-09-09T07:56:01;6.93;;;0.93;;
71104;SDS011;58760;48.716;8.962;2022-09-09T07:58:28;6.95;;;0.98;;
71104;SDS011;58760;48.716;8.962;2022-09-09T08:00:53;4.18;;;1.10;;
71104;SDS011;58760;48.716;8.962;2022-09-09T08:03:19;6.22;;;1.20;;
71104;SDS011;58760;48.716;8.962;2022-09-09T08:05:47;5.35;;;0.93;;
71104;SDS011;58760;48.716;8.962;2022-09-09T08:08:12;5.28;;;1.10;;
71104;SDS011;58760;48.716;8.962;2022-09-09T08:10:37;4.95;;;1.48;;
71104;SDS011;58760;48.716;8.962;2022-09-09T08:13:03;9.93;;;1.15;;
71104;SDS011;58760;48.716;8.962;2022-09-09T08:15:28;5.22;;;0.93;;
71104;SDS011;58760;48.716;8.962;2022-09-09T08:17:56;4.88;;;0.93;;
71104;SDS011;58760;48.716;8.962;2022-09-09T08:20:21;3.95;;;0.90;;
71104;SDS011;58760;48.716;8.962;2022-09-09T08:22:48;3.55;;;0.90;;
71104;SDS011;58760;48.716;8.962;2022-09-09T08:25:15;4.45;;;1.00;;
71104;SDS011;58760;48.716;8.962;2022-09-09T08:27:40;5.38;;;1.20;;
71104;SDS011;58760;48.716;8.962;2022-09-09T08:30:05;5.72;;;1.15;;
71104;SDS011;58760;48.716;8.962;2022-09-09T08:32:31;4.95;;;1.33;;
71104;SDS011;58760;48.716;8.962;2022-09-09T08:34:57;4.75;;;0.95;;
71104;SDS011;58760;48.716;8.962;2022-09-09T08:37:22;3.55;;;0.88;;
71104;SDS011;58760;48.716;8.962;2022-09-09T08:39:47;9.63;;;1.48;;
71104;SDS011;58760;48.716;8.962;2022-09-09T08:52:40;4.97;;;0.85;;
71104;SDS011;58760;48.716;8.962;2022-09-09T08:57:49;5.45;;;1.00;;
71104;SDS011;58760;48.716;8.962;2022-09-09T09:00:17;5.13;;;1.40;;
71104;SDS011;58760;48.716;8.962;2022-09-09T09:03:06;4.30;;;0.77;;
71104;SDS011;58760;48.716;8.962;2022-09-09T09:05:58;4.57;;;0.70;;
71104;SDS011;58760;48.716;8.962;2022-09-09T09:08:36;3.88;;;0.70;;
71104;SDS011;58760;48.716;8.962;2022-09-09T09:11:09;4.22;;;0.70;;
71104;SDS011;58760;48.716;8.962;2022-09-09T09:16:13;3.58;;;1.05;;
71104;SDS011;58760;48.716;8.962;2022-09-09T09:18:47;5.82;;;0.85;;
71104;SDS011;58760;48.716;8.962;2022-09-09T09:21:19;3.30;;;0.55;;
71104;SDS011;58760;48.716;8.962;2022-09-09T09:23:55;3.60;;;0.75;;
71104;SDS011;58760;48.716;8.962;2022-09-09T09:26:32;5.93;;;1.00;;
71104;SDS011;58760;48.716;8.962;2022-09-09T09:29:00;5.47;;;1.10;;
71104;SDS011;58760;48.716;8.962;2022-09-09T09:31:35;3.85;;;1.08;;
71104;SDS011;58760;48.716;8.962;2022-09-09T09:34:00;3.30;;;0.90;;
71104;SDS011;58760;48.716;8.962;2022-09-09T09:36:33;5.80;;;0.90;;
71104;SDS011;58760;48.716;8.962;2022-09-09T09:39:04;4.55;;;1.10;;
71104;SDS011;58760;48.716;8.962;2022-09-09T09:43:57;4.57;;;0.90;;
71104;SDS011;58760;48.716;8.962;2022-09-09T09:46:24;6.00;;;1.00;;
71104;SDS011;58760;48.716;8.962;2022-09-09T09:49:00;3.95;;;0.95;;
71104;SDS011;58760;48.716;8.962;2022-09-09T09:51:27;3.08;;;0.85;;
71104;SDS011;58760;48.716;8.962;2022-09-09T09:54:02;3.90;;;0.90;;
71104;SDS011;58760;48.716;8.962;2022-09-09T09:56:34;4.90;;;0.93;;
71104;SDS011;58760;48.716;8.962;2022-09-09T09:59:00;4.03;;;0.93;;
71104;SDS011;58760;48.716;8.962;2022-09-09T10:01:27;7.65;;;1.10;;
71104;SDS011;58760;48.716;8.962;2022-09-09T10:03:58;5.78;;;1.10;;
71104;SDS011;58760;48.716;8.962;2022-09-09T10:06:38;3.92;;;1.00;;
71104;SDS011;58760;48.716;8.962;2022-09-09T10:09:20;6.68;;;1.08;;
71104;SDS011;58760;48.716;8.962;2022-09-09T10:22:58;6.05;;;1.05;;
71104;SDS011;58760;48.716;8.962;2022-09-09T10:29:46;5.38;;;0.90;;
71104;SDS011;58760;48.716;8.962;2022-09-09T10:34:57;3.05;;;0.80;;
71104;SDS011;58760;48.716;8.962;2022-09-09T10:37:48;4.95;;;0.88;;
71104;SDS011;58760;48.716;8.962;2022-09-09T10:40:38;5.05;;;1.10;;
71104;SDS011;58760;48.716;8.962;2022-09-09T10:45:49;3.63;;;0.82;;
71104;SDS011;58760;48.716;8.962;2022-09-09T10:50:55;6.60;;;0.90;;
71104;SDS011;58760;48.716;8.962;2022-09-09T10:56:33;8.70;;;1.00;;
71104;SDS011;58760;48.716;8.962;2022-09-09T10:59:02;6.03;;;1.33;;
71104;SDS011;58760;48.716;8.962;2022-09-09T11:06:52;3.75;;;0.68;;
71104;SDS011;58760;48.716;8.962;2022-09-09T11:09:25;2.78;;;0.50;;
71104;SDS011;58760;48.716;8.962;2022-09-09T11:11:55;5.35;;;0.80;;
71104;SDS011;58760;48.716;8.962;2022-09-09T11:17:15;7.30;;;0.63;;
71104;SDS011;58760;48.716;8.962;2022-09-09T11:19:44;4.55;;;0.85;;
71104;SDS011;58760;48.716;8.962;2022-09-09T11:25:23;3.90;;;0.50;;
71104;SDS011;58760;48.716;8.962;2022-09-09T11:40:44;2.67;;;0.50;;
71104;SDS011;58760;48.716;8.962;2022-09-09T11:43:15;1.60;;;0.50;;
71104;SDS011;58760;48.716;8.962;2022-09-09T11:45:50;2.40;;;0.50;;
71104;SDS011;58760;48.716;8.962;2022-09-09T11:48:30;3.05;;;0.70;;
71104;SDS011;58760;48.716;8.962;2022-09-09T11:51:02;4.20;;;0.68;;
71104;SDS011;58760;48.716;8.962;2022-09-09T11:53:53;2.25;;;0.40;;
71104;SDS011;58760;48.716;8.962;2022-09-09T11:56:30;3.22;;;0.70;;
71104;SDS011;58760;48.716;8.962;2022-09-09T11:59:02;2.90;;;0.52;;
71104;SDS011;58760;48.716;8.962;2022-09-09T12:04:33;3.22;;;0.60;;
71104;SDS011;58760;48.716;8.962;2022-09-09T12:09:40;2.30;;;0.50;;
71104;SDS011;58760;48.716;8.962;2022-09-09T12:19:41;2.95;;;0.60;;
71104;SDS011;58760;48.716;8.962;2022-09-09T12:22:20;4.07;;;0.75;;
71104;SDS011;58760;48.716;8.962;2022-09-09T12:28:22;2.53;;;0.50;;
71104;SDS011;58760;48.716;8.962;2022-09-09T12:31:06;1.67;;;0.50;;
71104;SDS011;58760;48.716;8.962;2022-09-09T12:33:33;3.38;;;0.52;;
71104;SDS011;58760;48.716;8.962;2022-09-09T12:36:00;4.53;;;0.60;;
71104;SDS011;58760;48.716;8.962;2022-09-09T12:40:56;1.83;;;0.55;;
71104;SDS011;58760;48.716;8.962;2022-09-09T12:43:23;3.20;;;0.70;;
71104;SDS011;58760;48.716;8.962;2022-09-09T12:45:51;4.28;;;0.90;;
71104;SDS011;58760;48.716;8.962;2022-09-09T12:48:25;2.85;;;0.68;;
71104;SDS011;58760;48.716;8.962;2022-09-09T12:50:56;2.80;;;0.50;;
71104;SDS011;58760;48.716;8.962;2022-09-09T12:56:00;3.05;;;0.70;;
71104;SDS011;58760;48.716;8.962;2022-09-09T12:58:28;5.47;;;0.50;;
71104;SDS011;58760;48.716;8.962;2022-09-09T13:00:58;2.25;;;0.60;;
71104;SDS011;58760;48.716;8.962;2022-09-09T13:03:25;3.83;;;0.70;;
71104;SDS011;58760;48.716;8.962;2022-09-09T13:05:51;1.40;;;0.50;;
71104;SDS011;58760;48.716;8.962;2022-09-09T13:08:18;4.82;;;0.65;;
71104;SDS011;58760;48.716;8.962;2022-09-09T13:10:53;1.63;;;0.52;;
71104;SDS011;58760;48.716;8.962;2022-09-09T13:13:37;3.67;;;0.63;;
71104;SDS011;58760;48.716;8.962;2022-09-09T13:16:05;2.42;;;0.63;;
71104;SDS011;58760;48.716;8.962;2022-09-09T13:18:52;1.90;;;0.40;;
71104;SDS011;58760;48.716;8.962;2022-09-09T13:21:18;3.75;;;0.60;;
71104;SDS011;58760;48.716;8.962;2022-09-09T13:23:48;3.72;;;0.52;;
71104;SDS011;58760;48.716;8.962;2022-09-09T13:28:51;4.55;;;0.80;;
71104;SDS011;58760;48.716;8.962;2022-09-09T13:31:28;2.50;;;0.50;;
71104;SDS011;58760;48.716;8.962;2022-09-09T13:33:55;3.78;;;0.50;;
71104;SDS011;58760;48.716;8.962;2022-09-09T13:36:30;3.13;;;0.70;;
71104;SDS011;58760;48.716;8.962;2022-09-09T13:38:59;2.63;;;0.55;;
71104;SDS011;58760;48.716;8.962;2022-09-09T13:41:35;4.07;;;0.80;;
71104;SDS011;58760;48.716;8.962;2022-09-09T13:44:04;3.05;;;0.60;;
71104;SDS011;58760;48.716;8.962;2022-09-09T13:46:38;3.15;;;0.73;;
71104;SDS011;58760;48.716;8.962;2022-09-09T13:54:13;4.28;;;0.70;;
71104;SDS011;58760;48.716;8.962;2022-09-09T13:56:41;7.25;;;0.70;;
71104;SDS011;58760;48.716;8.962;2022-09-09T13:59:17;2.10;;;0.68;;
71104;SDS011;58760;48.716;8.962;2022-09-09T14:01:44;2.28;;;0.60;;
71104;SDS011;58760;48.716;8.962;2022-09-09T14:04:10;1.17;;;0.40;;
71104;SDS011;58760;48.716;8.962;2022-09-09T14:06:36;3.78;;;0.73;;
71104;SDS011;58760;48.716;8.962;2022-09-09T14:09:05;1.98;;;0.60;;
71104;SDS011;58760;48.716;8.962;2022-09-09T14:11:31;3.55;;;0.60;;
71104;SDS011;58760;48.716;8.962;2022-09-09T14:13:56;3.90;;;0.70;;
71104;SDS011;58760;48.716;8.962;2022-09-09T14:16:22;2.25;;;0.60;;
71104;SDS011;58760;48.716;8.962;2022-09-09T14:18:47;2.60;;;0.60;;
71104;SDS011;58760;48.716;8.962;2022-09-09T14:21:13;2.42;;;0.40;;
71104;SDS011;58760;48.716;8.962;2022-09-09T14:23:40;3.80;;;0.80;;
71104;SDS011;58760;48.716;8.962;2022-09-09T14:26:06;3.85;;;0.70;;
71104;SDS011;58760;48.716;8.962;2022-09-09T14:28:32;3.38;;;0.77;;
71104;SDS011;58760;48.716;8.962;2022-09-09T14:31:00;2.33;;;0.60;;
71104;SDS011;58760;48.716;8.962;2022-09-09T14:33:26;2.33;;;0.50;;
71104;SDS011;58760;48.716;8.962;2022-09-09T14:35:57;2.42;;;0.50;;
71104;SDS011;58760;48.716;8.962;2022-09-09T14:38:32;1.48;;;0.47;;
71104;SDS011;58760;48.716;8.962;2022-09-09T14:41:02;2.38;;;0.52;;
71104;SDS011;58760;48.716;8.962;2022-09-09T14:43:28;3.45;;;0.55;;
71104;SDS011;58760;48.716;8.962;2022-09-09T14:45:54;2.55;;;0.50;;
71104;SDS011;58760;48.716;8.962;2022-09-09T14:48:20;3.42;;;0.70;;
71104;SDS011;58760;48.716;8.962;2022-09-09T14:50:45;2.97;;;0.60;;
71104;SDS011;58760;48.716;8.962;2022-09-09T14:53:11;5.43;;;1.35;;
71104;SDS011;58760;48.716;8.962;2022-09-09T14:55:37;2.92;;;0.65;;
71104;SDS011;58760;48.716;8.962;2022-09-09T14:58:02;3.97;;;0.77;;
71104;SDS011;58760;48.716;8.962;2022-09-09T15:00:28;3.72;;;0.80;;
71104;SDS011;58760;48.716;8.962;2022-09-09T15:02:54;5.20;;;0.77;;
71104;SDS011;58760;48.716;8.962;2022-09-09T15:05:20;2.90;;;0.77;;
71104;SDS011;58760;48.716;8.962;2022-09-09T15:07:46;2.13;;;0.52;;
71104;SDS011;58760;48.716;8.962;2022-09-09T15:10:13;3.47;;;0.98;;
71104;SDS011;58760;48.716;8.962;2022-09-09T15:12:39;2.67;;;0.47;;
71104;SDS011;58760;48.716;8.962;2022-09-09T15:15:07;4.70;;;0.98;;
71104;SDS011;58760;48.716;8.962;2022-09-09T15:17:32;5.18;;;0.80;;
71104;SDS011;58760;48.716;8.962;2022-09-09T15:20:04;3.55;;;0.82;;
71104;SDS011;58760;48.716;8.962;2022-09-09T15:22:33;3.28;;;0.77;;
71104;SDS011;58760;48.716;8.962;2022-09-09T15:24:58;4.78;;;1.00;;
71104;SDS011;58760;48.716;8.962;2022-09-09T15:27:24;3.20;;;0.90;;
71104;SDS011;58760;48.716;8.962;2022-09-09T15:29:49;2.70;;;0.60;;
71104;SDS011;58760;48.716;8.962;2022-09-09T15:32:16;4.28;;;0.77;;
71104;SDS011;58760;48.716;8.962;2022-09-09T15:34:42;4.60;;;0.65;;
71104;SDS011;58760;48.716;8.962;2022-09-09T15:37:09;3.50;;;0.88;;
71104;SDS011;58760;48.716;8.962;2022-09-09T15:39:38;4.03;;;0.80;;
71104;SDS011;58760;48.716;8.962;2022-09-09T15:44:29;5.63;;;0.68;;
71104;SDS011;58760;48.716;8.962;2022-09-09T15:46:54;4.97;;;0.73;;
71104;SDS011;58760;48.716;8.962;2022-09-09T15:49:21;4.13;;;0.70;;
71104;SDS011;58760;48.716;8.962;2022-09-09T15:52:08;3.80;;;0.65;;
71104;SDS011;58760;48.716;8.962;2022-09-09T15:54:36;2.33;;;0.50;;
71104;SDS011;58760;48.716;8.962;2022-09-09T15:57:04;4.00;;;0.50;;
71104;SDS011;58760;48.716;8.962;2022-09-09T15:59:31;4.15;;;0.50;;
71104;SDS011;58760;48.716;8.962;2022-09-09T16:01:58;4.20;;;0.55;;
71104;SDS011;58760;48.716;8.962;2022-09-09T16:04:25;6.45;;;0.73;;
71104;SDS011;58760;48.716;8.962;2022-09-09T16:06:54;2.83;;;0.50;;
71104;SDS011;58760;48.716;8.962;2022-09-09T16:09:23;2.70;;;0.40;;
71104;SDS011;58760;48.716;8.962;2022-09-09T16:11:49;3.55;;;0.80;;
71104;SDS011;58760;48.716;8.962;2022-09-09T16:14:14;3.42;;;0.70;;
71104;SDS011;58760;48.716;8.962;2022-09-09T16:16:41;5.68;;;0.70;;
71104;SDS011;58760;48.716;8.962;2022-09-09T16:19:07;4.78;;;0.60;;
71104;SDS011;58760;48.716;8.962;2022-09-09T16:21:35;6.10;;;0.70;;
71104;SDS011;58760;48.716;8.962;2022-09-09T16:24:03;3.92;;;0.80;;
71104;SDS011;58760;48.716;8.962;2022-09-09T16:26:31;2.92;;;0.57;;
71104;SDS011;58760;48.716;8.962;2022-09-09T16:28:58;2.03;;;0.60;;
71104;SDS011;58760;48.716;8.962;2022-09-09T16:31:25;3.13;;;0.68;;
71104;SDS011;58760;48.716;8.962;2022-09-09T16:33:52;1.38;;;0.50;;
71104;SDS011;58760;48.716;8.962;2022-09-09T16:36:18;1.98;;;0.38;;
71104;SDS011;58760;48.716;8.962;2022-09-09T16:38:45;0.47;;;0.10;;
71104;SDS011;58760;48.716;8.962;2022-09-09T16:41:11;1.92;;;0.20;;
71104;SDS011;58760;48.716;8.962;2022-09-09T16:43:38;0.90;;;0.20;;
71104;SDS011;58760;48.716;8.962;2022-09-09T16:46:12;1.83;;;0.30;;
71104;SDS011;58760;48.716;8.962;2022-09-09T16:48:40;1.38;;;0.38;;
71104;SDS011;58760;48.716;8.962;2022-09-09T16:51:07;1.08;;;0.30;;
71104;SDS011;58760;48.716;8.962;2022-09-09T16:53:36;0.80;;;0.30;;
71104;SDS011;58760;48.716;8.962;2022-09-09T16:56:12;2.22;;;0.50;;
71104;SDS011;58760;48.716;8.962;2022-09-09T16:58:41;0.90;;;0.28;;
71104;SDS011;58760;48.716;8.962;2022-09-09T17:01:10;3.20;;;0.30;;
71104;SDS011;58760;48.716;8.962;2022-09-09T17:03:38;1.52;;;0.43;;
71104;SDS011;58760;48.716;8.962;2022-09-09T17:06:08;1.40;;;0.40;;
71104;SDS011;58760;48.716;8.962;2022-09-09T17:08:35;1.48;;;0.40;;
71104;SDS011;58760;48.716;8.962;2022-09-09T17:11:00;2.10;;;0.50;;
71104;SDS011;58760;48.716;8.962;2022-09-09T17:13:26;1.35;;;0.47;;
71104;SDS011;58760;48.716;8.962;2022-09-09T17:15:51;2.70;;;0.32;;
71104;SDS011;58760;48.716;8.962;2022-09-09T17:18:16;0.85;;;0.28;;
71104;SDS011;58760;48.716;8.962;2022-09-09T17:20:42;1.15;;;0.40;;
71104;SDS011;58760;48.716;8.962;2022-09-09T17:23:09;1.70;;;0.30;;
71104;SDS011;58760;48.716;8.962;2022-09-09T17:25:36;2.20;;;0.35;;
71104;SDS011;58760;48.716;8.962;2022-09-09T17:28:03;1.42;;;0.30;;
71104;SDS011;58760;48.716;8.962;2022-09-09T17:30:35;2.17;;;0.55;;
71104;SDS011;58760;48.716;8.962;2022-09-09T17:33:01;1.30;;;0.40;;